Time;durP1;ratioP1;P1;durP2;ratioP2;P2;SDS_P1;SDS_P2;PMS_P1;PMS_P2;Temp;Humidity;BMP_temperature;BMP_pressure;BME280_temperature;BME280_humidity;BME280_pressure;Samples;Min_cycle;Max_cycle;Signal;HPM_P1;HPM_P2
2022/10/19 00:02:21;;;;;;;3.38;0.82;;;10.90;99.90;;;;;;5085942;28;20040;-86
2022/10/19 00:04:48;;;;;;;3.70;0.85;;;10.90;99.90;;;;;;5116487;28;20407;-86
2022/10/19 00:07:14;;;;;;;3.47;0.70;;;10.90;99.90;;;;;;5116200;28;20497;-86
2022/10/19 00:09:44;;;;;;;2.08;0.55;;;10.90;99.90;;;;;;5116368;28;20514;-86
2022/10/19 00:12:12;;;;;;;4.03;0.90;;;10.90;99.90;;;;;;5115834;28;20087;-86
2022/10/19 00:14:38;;;;;;;3.55;0.90;;;11.20;99.90;;;;;;5083114;28;20040;-86
2022/10/19 00:17:05;;;;;;;1.02;0.60;;;10.90;99.90;;;;;;5116162;28;20040;-86
2022/10/19 00:19:32;;;;;;;2.75;0.80;;;10.90;99.90;;;;;;5116720;28;20032;-87
2022/10/19 00:21:59;;;;;;;4.53;0.90;;;10.90;99.90;;;;;;5083115;28;20128;-87
2022/10/19 00:24:26;;;;;;;2.03;0.63;;;10.90;99.90;;;;;;5083214;28;20159;-86
2022/10/19 00:26:53;;;;;;;7.07;1.00;;;10.90;99.90;;;;;;5116907;28;20036;-86
2022/10/19 00:29:19;;;;;;;4.70;0.80;;;10.90;99.90;;;;;;5112278;28;20044;-86
2022/10/19 00:31:51;;;;;;;2.03;0.60;;;11.10;99.90;;;;;;5096238;28;20044;-87
2022/10/19 00:34:18;;;;;;;2.28;0.70;;;10.90;99.90;;;;;;5112925;28;20090;-87
2022/10/19 00:36:45;;;;;;;6.30;0.90;;;10.90;99.90;;;;;;5112973;28;20074;-86
2022/10/19 00:39:14;;;;;;;2.47;0.65;;;10.90;99.90;;;;;;5096373;28;20028;-86
2022/10/19 00:41:42;;;;;;;4.68;0.60;;;11.00;99.90;;;;;;5092633;28;20041;-87
2022/10/19 00:44:09;;;;;;;2.22;0.80;;;11.00;99.90;;;;;;5092419;28;20501;-86
2022/10/19 00:46:49;;;;;;;6.47;0.90;;;11.00;99.90;;;;;;5092553;28;20040;-86
2022/10/19 00:49:22;;;;;;;5.93;0.85;;;11.00;99.90;;;;;;5092208;28;20040;-86
2022/10/19 00:51:53;;;;;;;2.03;0.52;;;11.20;99.90;;;;;;5092414;28;20041;-87
2022/10/19 00:54:21;;;;;;;5.82;0.90;;;11.00;99.90;;;;;;5092351;28;20043;-86
2022/10/19 00:56:50;;;;;;;2.65;0.93;;;11.00;99.90;;;;;;5075742;28;20036;-86
2022/10/19 00:59:20;;;;;;;3.15;0.70;;;11.00;99.90;;;;;;5109240;28;20033;-86
2022/10/19 01:01:48;;;;;;;3.85;0.73;;;11.00;99.90;;;;;;5092134;28;20046;-86
2022/10/19 01:04:15;;;;;;;5.50;1.00;;;11.00;99.90;;;;;;5092233;28;20114;-86
2022/10/19 01:06:41;;;;;;;1.98;0.75;;;11.00;99.90;;;;;;5075583;28;20048;-87
2022/10/19 01:09:08;;;;;;;2.40;0.60;;;11.10;99.90;;;;;;5106711;28;20043;-86
2022/10/19 01:11:56;;;;;;;4.32;0.65;;;11.10;99.90;;;;;;5079079;28;20134;-87
2022/10/19 01:14:35;;;;;;;3.83;0.75;;;11.00;99.90;;;;;;5111934;28;20040;-86
2022/10/19 01:17:28;;;;;;;3.08;0.70;;;11.00;99.90;;;;;;5112286;28;20036;-86
2022/10/19 01:20:18;;;;;;;1.95;0.50;;;11.00;99.90;;;;;;5099010;28;20049;-86
2022/10/19 01:23:10;;;;;;;3.90;0.75;;;11.00;99.90;;;;;;5108812;28;20032;-87
2022/10/19 01:26:04;;;;;;;2.90;0.70;;;11.00;99.90;;;;;;5092139;28;20143;-86
2022/10/19 01:29:08;;;;;;;4.00;0.60;;;11.00;99.90;;;;;;5092120;28;20480;-86
2022/10/19 01:32:14;;;;;;;6.55;0.68;;;11.00;99.90;;;;;;5104602;28;20043;-86
2022/10/19 01:34:47;;;;;;;7.13;0.60;;;11.00;99.90;;;;;;5127690;28;20075;-86
2022/10/19 01:37:37;;;;;;;4.57;0.50;;;11.00;99.90;;;;;;5111565;28;20044;-86
2022/10/19 01:40:25;;;;;;;1.00;0.50;;;11.00;99.90;;;;;;5128434;28;20476;-86
2022/10/19 01:43:22;;;;;;;2.95;0.73;;;11.00;99.90;;;;;;5111545;28;20047;-86
2022/10/19 01:46:12;;;;;;;2.28;0.40;;;10.90;99.90;;;;;;5111504;28;20120;-86
2022/10/19 01:48:42;;;;;;;1.45;0.45;;;10.90;99.90;;;;;;5111450;28;20048;-86
2022/10/19 01:51:16;;;;;;;7.07;0.80;;;10.90;99.90;;;;;;5111194;28;20575;-87
2022/10/19 01:53:49;;;;;;;8.18;0.90;;;10.90;99.90;;;;;;5128362;28;20377;-87
2022/10/19 01:56:19;;;;;;;6.78;0.70;;;10.90;99.90;;;;;;5111405;28;20040;-86
2022/10/19 01:58:47;;;;;;;1.27;0.50;;;10.90;99.90;;;;;;5111152;28;20073;-87
2022/10/19 02:01:18;;;;;;;4.47;0.55;;;10.90;99.90;;;;;;5077836;28;20040;-86
2022/10/19 02:03:45;;;;;;;3.25;0.63;;;10.90;99.90;;;;;;5111629;28;20040;-86
2022/10/19 02:06:13;;;;;;;2.88;0.50;;;10.90;99.90;;;;;;5094630;28;20079;-86
2022/10/19 02:08:45;;;;;;;5.10;0.55;;;10.90;99.90;;;;;;5078191;28;20040;-87
2022/10/19 02:11:12;;;;;;;2.95;0.60;;;10.90;99.90;;;;;;5110731;28;20048;-86
2022/10/19 02:13:40;;;;;;;2.10;0.80;;;10.90;99.90;;;;;;5111180;28;20040;-87
2022/10/19 02:16:12;;;;;;;4.53;0.50;;;10.90;99.90;;;;;;5094472;28;20051;-86
2022/10/19 02:18:44;;;;;;;4.55;0.82;;;10.80;99.90;;;;;;5111209;28;20132;-86
2022/10/19 02:21:11;;;;;;;4.80;0.90;;;10.80;99.90;;;;;;5110525;28;20036;-86
2022/10/19 02:23:38;;;;;;;1.92;0.68;;;10.80;99.90;;;;;;5094402;28;20051;-87
2022/10/19 02:26:06;;;;;;;5.55;0.95;;;10.80;99.90;;;;;;5094000;28;20051;-87
2022/10/19 02:28:33;;;;;;;4.13;0.75;;;10.90;99.90;;;;;;5110957;28;20086;-86
2022/10/19 02:31:00;;;;;;;4.05;0.55;;;10.80;99.90;;;;;;5110879;28;20040;-86
2022/10/19 02:33:27;;;;;;;6.15;1.17;;;10.80;99.90;;;;;;5094151;28;20046;-86
2022/10/19 02:35:55;;;;;;;3.53;0.75;;;10.80;99.90;;;;;;5077812;28;20050;-87
2022/10/19 02:38:23;;;;;;;4.07;0.60;;;10.80;99.90;;;;;;5077505;28;20050;-87
2022/10/19 02:40:59;;;;;;;3.42;0.85;;;10.70;99.90;;;;;;5094401;28;20040;-87
2022/10/19 02:43:29;;;;;;;7.63;0.55;;;10.70;99.90;;;;;;5110077;28;20044;-87
2022/10/19 02:46:03;;;;;;;4.32;1.15;;;10.70;99.90;;;;;;5110438;28;20075;-87
2022/10/19 02:48:32;;;;;;;4.47;0.73;;;10.60;99.90;;;;;;5110487;28;20457;-86
2022/10/19 02:50:59;;;;;;;3.60;0.52;;;10.70;99.90;;;;;;5110772;28;20044;-86
2022/10/19 02:53:26;;;;;;;2.28;0.77;;;10.60;99.90;;;;;;5093335;28;20036;-87
2022/10/19 02:55:52;;;;;;;3.55;0.57;;;10.60;99.90;;;;;;5127470;28;20040;-87
2022/10/19 02:58:19;;;;;;;2.95;0.70;;;10.60;99.90;;;;;;5076735;28;20044;-86
2022/10/19 03:00:46;;;;;;;6.20;0.75;;;10.60;99.90;;;;;;5093805;28;20581;-87
2022/10/19 03:03:13;;;;;;;2.83;0.50;;;10.60;99.90;;;;;;5093797;28;20044;-87
2022/10/19 03:05:39;;;;;;;6.60;0.82;;;10.70;99.90;;;;;;5076847;28;20557;-87
2022/10/19 03:08:06;;;;;;;7.00;2.05;;;10.60;99.90;;;;;;5093865;28;20065;-85
2022/10/19 03:10:32;;;;;;;3.60;0.55;;;10.60;99.90;;;;;;5093406;28;20457;-86
2022/10/19 03:12:59;;;;;;;4.20;0.77;;;10.70;99.90;;;;;;5110156;28;20512;-85
2022/10/19 03:15:28;;;;;;;2.92;0.70;;;10.60;99.90;;;;;;5093266;28;20089;-87
2022/10/19 03:17:55;;;;;;;6.95;0.77;;;10.70;99.90;;;;;;5093899;28;20043;-87
2022/10/19 03:20:22;;;;;;;3.50;1.08;;;10.60;99.90;;;;;;5093045;28;20484;-86
2022/10/19 03:22:49;;;;;;;2.28;0.40;;;10.60;99.90;;;;;;5093569;28;20046;-87
2022/10/19 03:25:16;;;;;;;3.63;0.82;;;10.60;99.90;;;;;;5110025;28;20068;-85
2022/10/19 03:27:43;;;;;;;2.08;0.65;;;10.60;99.90;;;;;;5093231;28;20043;-86
2022/10/19 03:30:10;;;;;;;2.63;0.80;;;10.50;99.90;;;;;;5093620;28;20037;-86
2022/10/19 03:32:36;;;;;;;3.88;0.80;;;10.40;99.90;;;;;;5109636;28;20109;-87
2022/10/19 03:35:03;;;;;;;8.73;1.13;;;10.40;99.90;;;;;;5093343;28;20040;-86
2022/10/19 03:37:30;;;;;;;10.90;1.15;;;10.30;99.90;;;;;;5089404;28;20040;-86
2022/10/19 03:39:57;;;;;;;10.27;1.00;;;10.30;99.90;;;;;;5073207;28;20039;-86
2022/10/19 03:42:23;;;;;;;4.63;0.70;;;10.20;99.90;;;;;;5072815;28;20044;-86
2022/10/19 03:44:50;;;;;;;3.50;0.75;;;10.20;99.90;;;;;;5073195;28;20503;-87
2022/10/19 03:47:16;;;;;;;7.95;0.82;;;10.20;99.90;;;;;;5072950;28;20044;-86
2022/10/19 03:49:43;;;;;;;9.15;1.02;;;10.10;99.90;;;;;;5089504;28;20051;-86
2022/10/19 03:52:10;;;;;;;7.20;0.80;;;10.10;99.90;;;;;;5089762;28;20051;-87
2022/10/19 03:54:37;;;;;;;3.47;0.77;;;10.20;99.90;;;;;;5073020;28;20127;-87
2022/10/19 03:57:03;;;;;;;3.83;0.80;;;10.10;99.90;;;;;;5089606;28;20051;-87
2022/10/19 03:59:30;;;;;;;8.40;0.98;;;10.20;99.90;;;;;;5092284;28;20032;-86
2022/10/19 04:01:57;;;;;;;6.03;0.93;;;10.10;99.90;;;;;;5061013;28;20087;-86
2022/10/19 04:04:24;;;;;;;2.85;0.75;;;10.20;99.90;;;;;;5087306;28;20043;-84
2022/10/19 04:06:52;;;;;;;6.25;1.35;;;10.20;99.90;;;;;;5071575;28;20085;-86
2022/10/19 04:09:21;;;;;;;6.40;0.88;;;10.20;99.90;;;;;;5068263;28;20052;-87
2022/10/19 04:11:48;;;;;;;7.43;1.40;;;10.20;99.90;;;;;;5079000;28;20052;-86
2022/10/19 04:14:17;;;;;;;7.40;1.23;;;10.30;99.90;;;;;;5062686;28;20040;-86
2022/10/19 04:16:44;;;;;;;3.53;0.82;;;10.30;99.90;;;;;;5076326;28;20033;-86
2022/10/19 04:19:14;;;;;;;11.13;1.13;;;10.30;99.90;;;;;;5093136;28;20119;-86
2022/10/19 04:21:43;;;;;;;6.47;1.33;;;10.40;99.90;;;;;;5092848;28;20044;-87
2022/10/19 04:24:15;;;;;;;3.92;0.82;;;10.40;99.90;;;;;;5076457;28;20055;-87
2022/10/19 04:26:47;;;;;;;5.82;0.95;;;10.40;99.90;;;;;;5100367;28;20044;-86
2022/10/19 04:29:17;;;;;;;8.77;1.15;;;10.50;99.90;;;;;;5112890;28;20092;-86
2022/10/19 04:31:45;;;;;;;2.30;0.60;;;10.60;99.90;;;;;;5112971;28;20118;-86
2022/10/19 04:34:11;;;;;;;7.95;0.93;;;10.70;99.90;;;;;;5112931;28;20377;-86
2022/10/19 04:36:38;;;;;;;5.00;0.82;;;10.70;99.90;;;;;;5079226;28;20047;-85
2022/10/19 04:39:05;;;;;;;4.75;0.80;;;10.70;99.90;;;;;;5079813;28;20024;-87
2022/10/19 04:41:32;;;;;;;3.83;1.00;;;10.80;99.90;;;;;;5112530;28;20577;-86
2022/10/19 04:44:01;;;;;;;9.15;1.20;;;10.80;99.90;;;;;;5086241;28;20186;-86
2022/10/19 04:46:29;;;;;;;3.45;0.77;;;10.70;99.90;;;;;;5124875;28;20076;-86
2022/10/19 04:48:56;;;;;;;6.53;0.90;;;10.70;99.90;;;;;;5113049;28;20046;-86
2022/10/19 04:51:24;;;;;;;4.13;0.57;;;10.70;99.90;;;;;;5129388;28;20422;-87
2022/10/19 04:53:52;;;;;;;8.55;1.00;;;10.70;99.90;;;;;;5112395;28;20046;-87
2022/10/19 04:56:20;;;;;;;9.35;1.10;;;10.60;99.90;;;;;;5112670;28;20039;-87
2022/10/19 04:58:47;;;;;;;4.75;0.95;;;10.60;99.90;;;;;;5112433;28;20083;-86
2022/10/19 05:01:20;;;;;;;4.00;0.60;;;10.70;99.90;;;;;;5096014;28;20484;-86
2022/10/19 05:03:47;;;;;;;3.70;0.60;;;10.70;99.90;;;;;;5112129;28;20047;-87
2022/10/19 05:06:14;;;;;;;8.20;0.90;;;10.60;99.90;;;;;;5096169;28;20040;-86
2022/10/19 05:08:41;;;;;;;4.68;0.98;;;10.60;99.90;;;;;;5091700;28;20072;-86
2022/10/19 05:11:11;;;;;;;6.93;1.50;;;10.60;99.90;;;;;;5058971;28;20090;-87
2022/10/19 05:13:38;;;;;;;4.57;0.90;;;10.60;99.90;;;;;;5091925;28;20037;-86
2022/10/19 05:16:06;;;;;;;6.07;0.85;;;10.60;99.90;;;;;;5095640;28;20407;-87
2022/10/19 05:18:33;;;;;;;4.28;0.60;;;10.60;99.90;;;;;;5112418;28;20032;-86
2022/10/19 05:21:06;;;;;;;7.25;0.80;;;10.60;99.90;;;;;;5112504;28;20040;-86
2022/10/19 05:23:33;;;;;;;6.80;1.02;;;10.60;99.90;;;;;;5112170;28;20408;-86
2022/10/19 05:26:00;;;;;;;8.05;1.63;;;10.60;99.90;;;;;;5111918;28;20046;-86
2022/10/19 05:28:27;;;;;;;3.72;0.70;;;10.60;99.90;;;;;;5111893;28;20567;-86
2022/10/19 05:30:54;;;;;;;10.15;1.00;;;10.60;99.90;;;;;;5095152;28;20040;-86
2022/10/19 05:33:21;;;;;;;6.32;1.02;;;10.60;99.90;;;;;;5095213;28;20040;-86
2022/10/19 05:35:47;;;;;;;8.50;0.98;;;10.70;99.90;;;;;;5094976;28;20089;-86
2022/10/19 05:38:14;;;;;;;3.53;0.93;;;10.70;99.90;;;;;;5095364;28;20043;-87
2022/10/19 05:40:44;;;;;;;5.50;1.10;;;10.70;99.90;;;;;;5111471;28;20040;-87
2022/10/19 05:43:11;;;;;;;3.50;0.70;;;10.80;99.90;;;;;;5095260;28;20050;-86
2022/10/19 05:45:38;;;;;;;2.33;0.70;;;10.80;99.90;;;;;;5094975;28;20047;-86
2022/10/19 05:48:05;;;;;;;8.60;1.10;;;10.80;99.90;;;;;;5094667;28;20040;-86
2022/10/19 05:50:32;;;;;;;5.35;0.60;;;10.80;99.90;;;;;;5111337;28;20040;-87
2022/10/19 05:52:58;;;;;;;4.55;0.85;;;10.80;99.90;;;;;;5077632;28;20039;-86
2022/10/19 05:55:25;;;;;;;4.35;0.98;;;10.80;99.90;;;;;;5110580;28;20492;-86
2022/10/19 05:57:52;;;;;;;3.42;0.90;;;10.80;99.90;;;;;;5080507;28;20503;-86
2022/10/19 06:00:18;;;;;;;2.30;0.60;;;10.80;99.90;;;;;;5077680;28;20381;-87
2022/10/19 06:02:45;;;;;;;4.53;0.52;;;10.80;99.90;;;;;;5100350;28;20059;-87
2022/10/19 06:05:11;;;;;;;6.57;1.50;;;10.80;99.90;;;;;;5077643;28;20138;-86
2022/10/19 06:07:38;;;;;;;6.32;0.90;;;10.80;99.90;;;;;;5110121;28;20109;-86
2022/10/19 06:10:05;;;;;;;3.97;0.82;;;10.80;99.90;;;;;;5077498;28;20035;-86
2022/10/19 06:12:32;;;;;;;3.70;0.88;;;10.80;99.90;;;;;;5110808;28;20047;-86
2022/10/19 06:14:58;;;;;;;4.18;0.73;;;10.80;99.90;;;;;;5094161;28;20050;-87
2022/10/19 06:17:28;;;;;;;6.82;0.90;;;10.80;99.90;;;;;;5094178;28;20458;-87
2022/10/19 06:19:54;;;;;;;4.43;0.70;;;10.70;99.90;;;;;;5110487;28;20032;-86
2022/10/19 06:22:21;;;;;;;7.63;1.00;;;10.70;99.90;;;;;;5077293;28;20411;-87
2022/10/19 06:24:48;;;;;;;3.72;0.93;;;10.80;99.90;;;;;;5093877;28;20056;-86
2022/10/19 06:27:15;;;;;;;6.75;0.80;;;10.80;99.90;;;;;;5093197;28;20492;-87
2022/10/19 06:29:41;;;;;;;8.35;1.10;;;10.80;99.90;;;;;;5105849;28;20044;-87
2022/10/19 06:32:08;;;;;;;7.50;0.70;;;10.80;99.90;;;;;;5057327;28;20047;-86
2022/10/19 06:34:34;;;;;;;3.85;0.70;;;10.80;99.90;;;;;;5057424;28;20036;-86
2022/10/19 06:37:01;;;;;;;1.70;0.50;;;10.80;99.90;;;;;;5073942;28;20040;-86
2022/10/19 06:39:28;;;;;;;4.95;0.68;;;10.80;99.90;;;;;;5059197;28;20089;-86
2022/10/19 06:41:54;;;;;;;7.72;0.80;;;10.80;99.90;;;;;;5068381;28;20076;-86
2022/10/19 06:44:21;;;;;;;3.83;0.70;;;10.80;99.90;;;;;;5071935;28;20041;-86
2022/10/19 06:46:48;;;;;;;4.13;0.60;;;10.80;99.90;;;;;;5067817;28;20563;-86
2022/10/19 06:49:14;;;;;;;5.85;0.98;;;10.90;99.90;;;;;;5109056;28;20039;-86
2022/10/19 06:51:41;;;;;;;8.85;0.98;;;10.80;99.90;;;;;;5087640;28;20062;-86
2022/10/19 06:54:08;;;;;;;4.00;0.80;;;10.90;99.90;;;;;;5118473;28;20055;-86
2022/10/19 06:56:35;;;;;;;4.53;1.20;;;10.90;99.90;;;;;;5063323;28;20396;-87
2022/10/19 06:59:02;;;;;;;3.85;0.68;;;11.00;99.90;;;;;;5107090;28;20036;-86
2022/10/19 07:01:28;;;;;;;6.30;0.80;;;11.00;99.90;;;;;;5076197;28;20036;-86
2022/10/19 07:03:55;;;;;;;3.08;0.60;;;11.00;99.90;;;;;;5103253;28;20044;-87
2022/10/19 07:06:22;;;;;;;4.45;0.93;;;11.00;99.90;;;;;;5059812;28;20040;-86
2022/10/19 07:08:50;;;;;;;3.42;0.68;;;11.00;99.90;;;;;;5086984;28;20854;-86
2022/10/19 07:11:21;;;;;;;1.42;0.50;;;11.00;99.90;;;;;;5093227;28;20063;-86
2022/10/19 07:13:47;;;;;;;2.88;0.70;;;11.10;99.90;;;;;;5110060;28;20567;-86
2022/10/19 07:16:16;;;;;;;6.82;1.17;;;11.10;99.90;;;;;;5093086;28;20119;-87
2022/10/19 07:18:43;;;;;;;5.72;0.73;;;11.00;99.90;;;;;;5110177;28;20044;-86
2022/10/19 07:21:13;;;;;;;7.55;1.38;;;11.10;99.90;;;;;;5109546;28;20048;-86
2022/10/19 07:23:41;;;;;;;3.42;0.55;;;11.10;99.90;;;;;;5110077;28;20389;-86
2022/10/19 07:26:15;;;;;;;6.90;0.88;;;11.10;99.90;;;;;;5109692;28;20496;-86
2022/10/19 07:28:44;;;;;;;4.00;0.60;;;11.10;99.90;;;;;;5126307;28;20055;-86
2022/10/19 07:31:13;;;;;;;2.90;0.90;;;11.10;99.90;;;;;;5109444;28;20186;-86
2022/10/19 07:33:40;;;;;;;5.10;0.60;;;11.20;99.90;;;;;;5105486;28;20037;-87
2022/10/19 07:36:08;;;;;;;6.53;0.80;;;11.20;99.90;;;;;;5092770;28;20040;-85
2022/10/19 07:38:36;;;;;;;4.95;0.73;;;11.30;99.90;;;;;;5128959;28;20473;-85
2022/10/19 07:41:06;;;;;;;2.83;0.80;;;11.30;99.90;;;;;;5096637;28;20488;-85
2022/10/19 07:43:34;;;;;;;2.58;0.65;;;11.30;99.90;;;;;;5113137;28;20416;-85
2022/10/19 07:46:03;;;;;;;2.55;0.73;;;11.40;99.90;;;;;;5096050;28;20044;-86
2022/10/19 07:48:29;;;;;;;6.65;0.80;;;11.40;99.90;;;;;;5113161;28;20044;-85
2022/10/19 07:50:56;;;;;;;4.30;0.73;;;11.40;99.90;;;;;;5073082;28;20044;-84
2022/10/19 07:53:23;;;;;;;5.38;0.80;;;11.50;99.90;;;;;;5087672;28;20044;-85
2022/10/19 07:55:50;;;;;;;6.53;0.75;;;11.50;99.90;;;;;;5078764;28;20101;-84
2022/10/19 07:58:16;;;;;;;3.42;0.80;;;11.50;99.90;;;;;;5067356;28;20064;-85
2022/10/19 08:00:43;;;;;;;4.03;0.47;;;11.50;99.90;;;;;;5081823;28;20044;-84
2022/10/19 08:03:10;;;;;;;1.92;0.57;;;11.60;99.90;;;;;;5092556;28;20127;-85
2022/10/19 08:05:37;;;;;;;5.07;1.10;;;11.70;99.90;;;;;;5076540;28;20868;-85
2022/10/19 08:08:04;;;;;;;4.15;0.60;;;11.70;99.90;;;;;;5076417;28;20135;-85
2022/10/19 08:10:31;;;;;;;6.75;0.90;;;11.70;99.90;;;;;;5076088;28;20059;-84
2022/10/19 08:12:57;;;;;;;3.58;0.70;;;11.80;99.90;;;;;;5092519;28;20060;-82
2022/10/19 08:15:25;;;;;;;4.93;1.63;;;11.80;99.90;;;;;;5092993;28;20032;-85
2022/10/19 08:17:52;;;;;;;4.28;1.05;;;11.80;99.90;;;;;;5092851;28;20051;-84
2022/10/19 08:20:18;;;;;;;5.43;0.70;;;11.80;99.90;;;;;;5059351;28;20044;-85
2022/10/19 08:22:45;;;;;;;5.80;0.85;;;11.90;99.90;;;;;;5077515;28;20048;-84
2022/10/19 08:25:12;;;;;;;6.35;1.00;;;11.90;99.90;;;;;;5079289;28;20082;-84
2022/10/19 08:27:39;;;;;;;6.53;0.88;;;12.00;99.90;;;;;;5079227;28;20500;-85
2022/10/19 08:30:06;;;;;;;6.28;0.70;;;12.10;99.90;;;;;;5095338;28;20416;-85
2022/10/19 08:32:32;;;;;;;7.25;0.80;;;12.10;99.90;;;;;;5111739;28;20403;-85
2022/10/19 08:34:59;;;;;;;6.90;0.75;;;12.20;99.90;;;;;;5064416;28;20128;-84
2022/10/19 08:37:26;;;;;;;5.53;1.08;;;12.20;99.90;;;;;;5095031;28;20067;-85
2022/10/19 08:39:52;;;;;;;7.18;0.95;;;12.20;99.90;;;;;;5079516;28;20561;-85
2022/10/19 08:42:27;;;;;;;6.25;0.90;;;12.30;99.90;;;;;;5095100;28;20097;-84
2022/10/19 08:45:23;;;;;;;2.58;0.60;;;12.30;99.90;;;;;;5112325;28;20047;-84
2022/10/19 08:47:59;;;;;;;4.10;0.77;;;12.30;99.90;;;;;;5112036;28;20044;-84
2022/10/19 08:50:32;;;;;;;5.97;0.98;;;12.30;99.90;;;;;;5110388;28;20127;-84
2022/10/19 08:53:15;;;;;;;3.25;0.60;;;12.40;99.90;;;;;;5111879;28;20085;-84
2022/10/19 08:56:09;;;;;;;2.80;0.52;;;12.40;99.90;;;;;;5111816;28;20518;-84
2022/10/19 08:58:48;;;;;;;8.25;1.15;;;12.40;99.90;;;;;;5112115;28;20400;-84
2022/10/19 09:01:45;;;;;;;7.15;0.70;;;12.50;99.90;;;;;;5128606;28;20123;-85
2022/10/19 09:04:19;;;;;;;8.60;0.88;;;12.40;99.90;;;;;;5111672;28;20048;-85
2022/10/19 09:07:25;;;;;;;6.35;0.88;;;12.50;99.90;;;;;;5111978;28;20083;-84
2022/10/19 09:10:09;;;;;;;3.70;0.80;;;12.60;99.90;;;;;;5107151;28;20044;-84
2022/10/19 09:13:00;;;;;;;3.65;0.80;;;12.60;99.90;;;;;;5101011;28;20044;-85
2022/10/19 09:15:40;;;;;;;3.13;0.70;;;12.60;99.90;;;;;;5127859;28;20055;-84
2022/10/19 09:18:24;;;;;;;6.35;0.65;;;12.70;99.90;;;;;;5090871;28;20032;-84
2022/10/19 09:21:19;;;;;;;4.65;0.70;;;12.70;99.90;;;;;;5091412;28;20044;-84
2022/10/19 09:24:04;;;;;;;10.05;1.05;;;12.80;99.90;;;;;;5106522;28;20136;-85
2022/10/19 09:26:36;;;;;;;5.45;0.80;;;12.80;99.90;;;;;;5107471;28;20037;-84
2022/10/19 09:29:28;;;;;;;6.20;0.82;;;12.90;99.90;;;;;;5107903;28;20117;-84
2022/10/19 09:31:59;;;;;;;4.60;0.80;;;12.90;99.90;;;;;;5108069;28;20140;-84
2022/10/19 09:34:36;;;;;;;4.22;0.70;;;12.90;99.90;;;;;;5111037;28;20032;-84
2022/10/19 09:37:03;;;;;;;7.53;1.02;;;12.90;99.90;;;;;;5111219;28;20089;-84
2022/10/19 09:39:30;;;;;;;3.97;0.60;;;13.00;99.90;;;;;;5077505;28;20033;-84
2022/10/19 09:42:09;;;;;;;3.00;0.57;;;13.00;99.90;;;;;;5111292;28;20075;-85
2022/10/19 09:44:35;;;;;;;4.57;0.63;;;12.90;99.90;;;;;;5111113;28;20036;-84
2022/10/19 09:47:24;;;;;;;4.88;0.77;;;12.90;99.90;;;;;;5110923;28;20046;-83
2022/10/19 09:50:07;;;;;;;2.92;0.70;;;13.00;99.90;;;;;;5110556;28;20556;-83
2022/10/19 09:52:35;;;;;;;6.05;0.90;;;12.90;99.90;;;;;;5110541;28;20036;-83
2022/10/19 09:55:08;;;;;;;3.67;0.80;;;13.00;99.90;;;;;;5100614;28;20749;-84
2022/10/19 09:57:44;;;;;;;1.83;0.45;;;12.90;99.90;;;;;;5098507;28;20035;-84
2022/10/19 10:00:30;;;;;;;9.52;1.00;;;13.00;99.90;;;;;;5109691;28;20040;-84
2022/10/19 10:02:57;;;;;;;8.48;1.05;;;13.00;99.90;;;;;;5107996;28;20074;-84
2022/10/19 10:05:39;;;;;;;4.32;0.82;;;13.00;99.90;;;;;;5103028;28;20068;-84
2022/10/19 10:08:17;;;;;;;4.80;1.02;;;13.10;99.90;;;;;;5097885;28;20064;-84
2022/10/19 10:11:03;;;;;;;3.35;0.80;;;13.10;99.90;;;;;;5108345;28;20450;-84
2022/10/19 10:13:33;;;;;;;4.95;0.85;;;13.00;99.90;;;;;;5108279;28;20048;-85
2022/10/19 10:16:04;;;;;;;5.43;1.20;;;13.00;99.90;;;;;;5090605;28;20047;-84
2022/10/19 10:18:46;;;;;;;10.68;1.55;;;13.00;99.90;;;;;;5104811;28;20038;-84
2022/10/19 10:21:23;;;;;;;3.42;0.93;;;13.10;99.90;;;;;;5120563;28;20469;-83
2022/10/19 10:24:05;;;;;;;5.03;0.80;;;13.10;99.90;;;;;;5105750;28;20044;-83
2022/10/19 10:26:44;;;;;;;7.18;0.80;;;13.00;99.90;;;;;;5097965;28;20048;-84
2022/10/19 10:29:22;;;;;;;2.60;0.70;;;13.10;99.90;;;;;;5109925;28;20472;-84
2022/10/19 10:32:12;;;;;;;3.83;0.70;;;13.00;99.90;;;;;;5104538;28;20510;-83
2022/10/19 10:34:43;;;;;;;5.60;0.93;;;13.10;99.90;;;;;;5120573;28;20044;-84
2022/10/19 10:37:27;;;;;;;2.53;0.60;;;13.10;99.90;;;;;;5126450;28;20125;-84
2022/10/19 10:39:56;;;;;;;5.63;0.80;;;13.20;99.90;;;;;;5126458;28;20118;-84
2022/10/19 10:42:42;;;;;;;6.88;0.80;;;13.20;99.90;;;;;;5109557;28;20031;-84
2022/10/19 10:45:31;;;;;;;8.18;1.10;;;13.20;99.90;;;;;;5106916;28;20044;-84
2022/10/19 10:48:24;;;;;;;5.75;0.88;;;13.20;99.90;;;;;;5105768;28;20044;-84
2022/10/19 10:50:51;;;;;;;7.55;0.90;;;13.20;99.90;;;;;;5103189;28;20044;-84
2022/10/19 10:53:45;;;;;;;3.75;0.98;;;13.10;99.90;;;;;;5081596;28;20125;-84
2022/10/19 10:56:26;;;;;;;7.28;1.05;;;13.10;99.90;;;;;;5082066;28;20068;-84
2022/10/19 10:59:14;;;;;;;9.50;1.00;;;13.10;99.90;;;;;;5115655;28;20045;-84
2022/10/19 11:01:52;;;;;;;5.50;0.65;;;13.10;99.90;;;;;;5106849;28;20036;-84
2022/10/19 11:04:24;;;;;;;3.88;0.82;;;13.10;99.90;;;;;;5098221;28;20044;-84
2022/10/19 11:06:58;;;;;;;2.80;1.27;;;13.20;99.90;;;;;;5125982;28;20080;-85
2022/10/19 11:09:33;;;;;;;3.53;0.90;;;13.20;99.90;;;;;;5109048;28;20040;-84
2022/10/19 11:12:04;;;;;;;3.85;0.95;;;13.10;99.90;;;;;;5108703;28;20059;-84
2022/10/19 11:15:05;;;;;;;7.18;0.98;;;13.10;99.90;;;;;;5108707;28;20032;-84
2022/10/19 11:17:38;;;;;;;4.38;0.93;;;13.10;99.90;;;;;;5121826;28;20051;-85
2022/10/19 11:20:10;;;;;;;8.85;1.40;;;13.10;99.90;;;;;;5109043;28;20122;-84
2022/10/19 11:23:02;;;;;;;5.13;1.17;;;13.10;99.90;;;;;;5092726;28;20155;-84
2022/10/19 11:25:48;;;;;;;8.55;0.98;;;13.10;99.90;;;;;;5107734;28;20448;-84
2022/10/19 11:28:21;;;;;;;5.57;1.08;;;13.20;99.90;;;;;;5125466;28;20488;-83
2022/10/19 11:31:00;;;;;;;3.55;1.15;;;13.20;99.90;;;;;;5092502;28;20397;-83
2022/10/19 11:33:49;;;;;;;4.13;0.98;;;13.30;99.90;;;;;;5108480;28;20128;-84
2022/10/19 11:36:50;;;;;;;5.20;1.00;;;13.30;99.90;;;;;;5109656;28;20046;-83
2022/10/19 11:39:49;;;;;;;6.30;0.73;;;13.40;99.90;;;;;;5108837;28;20460;-83
2022/10/19 11:42:25;;;;;;;5.25;0.95;;;13.50;99.90;;;;;;5102259;28;20036;-85
2022/10/19 11:44:55;;;;;;;6.15;1.30;;;13.50;99.90;;;;;;5104837;28;20044;-85
2022/10/19 11:47:27;;;;;;;4.13;1.10;;;13.40;99.90;;;;;;5096271;28;20047;-84
2022/10/19 11:50:07;;;;;;;5.50;0.90;;;13.50;99.90;;;;;;5119611;28;20046;-84
2022/10/19 11:52:46;;;;;;;3.42;0.70;;;13.50;99.90;;;;;;5122107;28;20051;-84
2022/10/19 11:55:34;;;;;;;6.57;1.00;;;13.50;99.90;;;;;;5098585;28;20032;-84
2022/10/19 11:58:28;;;;;;;4.72;1.10;;;13.60;99.90;;;;;;5108845;28;20032;-84
2022/10/19 12:00:58;;;;;;;7.63;1.65;;;13.60;99.90;;;;;;5125954;28;20041;-84
2022/10/19 12:03:55;;;;;;;7.85;1.10;;;13.60;99.90;;;;;;5108593;28;20525;-84
2022/10/19 12:06:54;;;;;;;4.18;0.80;;;13.60;99.90;;;;;;5108547;28;20043;-84
2022/10/19 12:09:26;;;;;;;5.63;0.98;;;13.50;99.90;;;;;;5107763;28;20161;-84
2022/10/19 12:11:56;;;;;;;2.72;0.90;;;13.50;99.90;;;;;;5094024;28;20063;-84
2022/10/19 12:14:27;;;;;;;6.93;0.93;;;13.50;99.90;;;;;;5105002;28;20051;-84
2022/10/19 12:16:57;;;;;;;7.90;0.90;;;13.60;99.90;;;;;;5105372;28;20032;-84
2022/10/19 12:19:28;;;;;;;5.10;1.02;;;13.60;99.90;;;;;;5104913;28;20033;-84
2022/10/19 12:22:00;;;;;;;6.20;1.98;;;13.40;99.90;;;;;;5093145;28;20085;-85
2022/10/19 12:24:29;;;;;;;1.92;0.77;;;13.40;99.90;;;;;;5109708;28;20097;-82
2022/10/19 12:26:56;;;;;;;8.50;1.15;;;13.30;99.90;;;;;;5095463;28;20412;-83
2022/10/19 12:29:36;;;;;;;3.25;0.63;;;13.30;99.90;;;;;;5095273;28;20036;-80
2022/10/19 12:32:04;;;;;;;3.47;0.90;;;13.30;99.90;;;;;;5112119;28;20040;-83
2022/10/19 12:34:48;;;;;;;5.50;1.00;;;13.30;99.90;;;;;;5111692;28;20036;-83
2022/10/19 12:37:18;;;;;;;5.88;1.25;;;13.20;99.90;;;;;;5112046;28;20032;-84
2022/10/19 12:39:54;;;;;;;4.43;1.20;;;13.20;99.90;;;;;;5111449;28;20553;-83
2022/10/19 12:42:50;;;;;;;2.20;0.73;;;13.20;99.90;;;;;;5107740;28;20046;-86
2022/10/19 12:45:34;;;;;;;3.90;1.30;;;13.20;99.90;;;;;;5102193;28;20057;-85
2022/10/19 12:48:07;;;;;;;7.07;0.98;;;13.30;99.90;;;;;;5091932;28;20045;-84
2022/10/19 12:50:49;;;;;;;4.65;0.90;;;13.30;99.90;;;;;;5107305;28;20036;-84
2022/10/19 12:53:24;;;;;;;3.72;0.85;;;13.30;99.90;;;;;;5127177;28;20044;-84
2022/10/19 12:56:10;;;;;;;;;;;13.40;99.90;;;;;;5108828;28;20048;-84
2022/10/19 12:58:42;;;;;;;6.75;0.95;;;13.40;99.90;;;;;;5124665;28;19926;-83
2022/10/19 13:01:32;;;;;;;3.67;1.10;;;13.40;99.90;;;;;;5091034;28;20048;-84
2022/10/19 13:04:13;;;;;;;1.85;0.80;;;13.30;99.90;;;;;;5103588;28;20052;-84
2022/10/19 13:06:48;;;;;;;3.65;0.70;;;13.20;99.90;;;;;;5121380;28;20118;-84
2022/10/19 13:09:38;;;;;;;5.43;0.90;;;13.10;99.90;;;;;;5109950;28;20537;-83
2022/10/19 13:12:14;;;;;;;4.03;0.82;;;13.10;99.90;;;;;;5121482;28;20124;-82
2022/10/19 13:14:52;;;;;;;4.18;1.08;;;13.10;99.90;;;;;;5121511;28;20044;-82
2022/10/19 13:17:36;;;;;;;3.08;0.90;;;13.10;99.90;;;;;;5118775;28;20065;-83